sensor_id;sensor_type;location;lat;lon;timestamp;P1;durP1;ratioP1;P2;durP2;ratioP2
71127;SDS011;59249;59.736;30.568;2023-05-07T00:00:06;7.78;;;2.00;;
71127;SDS011;59249;59.736;30.568;2023-05-07T00:02:38;6.85;;;1.88;;
71127;SDS011;59249;59.736;30.568;2023-05-07T00:05:07;8.43;;;2.15;;
71127;SDS011;59249;59.736;30.568;2023-05-07T00:07:37;6.40;;;2.27;;
71127;SDS011;59249;59.736;30.568;2023-05-07T00:10:06;6.18;;;1.40;;
71127;SDS011;59249;59.736;30.568;2023-05-07T00:12:36;5.68;;;1.73;;
71127;SDS011;59249;59.736;30.568;2023-05-07T00:15:07;3.97;;;1.40;;
71127;SDS011;59249;59.736;30.568;2023-05-07T00:17:37;6.35;;;1.60;;
71127;SDS011;59249;59.736;30.568;2023-05-07T00:20:06;11.43;;;2.00;;
71127;SDS011;59249;59.736;30.568;2023-05-07T00:22:37;9.32;;;2.22;;
71127;SDS011;59249;59.736;30.568;2023-05-07T00:25:06;8.85;;;2.60;;
71127;SDS011;59249;59.736;30.568;2023-05-07T00:27:36;5.85;;;2.67;;
71127;SDS011;59249;59.736;30.568;2023-05-07T00:30:07;11.13;;;1.95;;
71127;SDS011;59249;59.736;30.568;2023-05-07T00:32:38;11.93;;;2.37;;
71127;SDS011;59249;59.736;30.568;2023-05-07T00:35:07;14.70;;;3.47;;
71127;SDS011;59249;59.736;30.568;2023-05-07T00:37:37;8.68;;;3.33;;
71127;SDS011;59249;59.736;30.568;2023-05-07T00:40:06;9.18;;;2.95;;
71127;SDS011;59249;59.736;30.568;2023-05-07T00:42:36;7.20;;;2.60;;
71127;SDS011;59249;59.736;30.568;2023-05-07T00:45:07;5.53;;;1.90;;
71127;SDS011;59249;59.736;30.568;2023-05-07T00:47:37;10.55;;;2.50;;
71127;SDS011;59249;59.736;30.568;2023-05-07T00:50:07;7.70;;;2.20;;
71127;SDS011;59249;59.736;30.568;2023-05-07T00:52:39;7.22;;;1.88;;
71127;SDS011;59249;59.736;30.568;2023-05-07T00:55:09;6.82;;;2.50;;
71127;SDS011;59249;59.736;30.568;2023-05-07T00:57:40;8.80;;;2.93;;
71127;SDS011;59249;59.736;30.568;2023-05-07T01:00:12;7.53;;;2.30;;
71127;SDS011;59249;59.736;30.568;2023-05-07T01:02:41;10.23;;;2.42;;
71127;SDS011;59249;59.736;30.568;2023-05-07T01:05:12;7.20;;;2.25;;
71127;SDS011;59249;59.736;30.568;2023-05-07T01:07:44;7.78;;;2.58;;
71127;SDS011;59249;59.736;30.568;2023-05-07T01:10:14;7.50;;;2.37;;
71127;SDS011;59249;59.736;30.568;2023-05-07T01:12:45;9.52;;;2.90;;
71127;SDS011;59249;59.736;30.568;2023-05-07T01:15:18;9.43;;;2.50;;
71127;SDS011;59249;59.736;30.568;2023-05-07T01:17:47;9.48;;;2.35;;
71127;SDS011;59249;59.736;30.568;2023-05-07T01:20:23;8.73;;;2.80;;
71127;SDS011;59249;59.736;30.568;2023-05-07T01:22:55;7.93;;;2.50;;
71127;SDS011;59249;59.736;30.568;2023-05-07T01:25:25;7.80;;;2.50;;
71127;SDS011;59249;59.736;30.568;2023-05-07T01:27:57;8.63;;;2.38;;
71127;SDS011;59249;59.736;30.568;2023-05-07T01:30:31;8.85;;;3.20;;
71127;SDS011;59249;59.736;30.568;2023-05-07T01:33:08;6.60;;;2.08;;
71127;SDS011;59249;59.736;30.568;2023-05-07T01:35:41;6.53;;;2.27;;
71127;SDS011;59249;59.736;30.568;2023-05-07T01:38:16;6.53;;;2.40;;
71127;SDS011;59249;59.736;30.568;2023-05-07T01:40:46;7.80;;;2.67;;
71127;SDS011;59249;59.736;30.568;2023-05-07T01:43:15;9.30;;;2.40;;
71127;SDS011;59249;59.736;30.568;2023-05-07T01:45:45;7.95;;;2.38;;
71127;SDS011;59249;59.736;30.568;2023-05-07T01:48:15;9.60;;;3.10;;
71127;SDS011;59249;59.736;30.568;2023-05-07T01:50:45;7.18;;;2.28;;
71127;SDS011;59249;59.736;30.568;2023-05-07T01:53:17;8.13;;;2.22;;
71127;SDS011;59249;59.736;30.568;2023-05-07T01:55:46;8.50;;;2.63;;
71127;SDS011;59249;59.736;30.568;2023-05-07T01:58:15;7.03;;;2.25;;
71127;SDS011;59249;59.736;30.568;2023-05-07T02:00:44;7.43;;;2.47;;
71127;SDS011;59249;59.736;30.568;2023-05-07T02:03:13;8.75;;;2.33;;
71127;SDS011;59249;59.736;30.568;2023-05-07T02:05:54;5.85;;;1.75;;
71127;SDS011;59249;59.736;30.568;2023-05-07T02:08:33;6.70;;;1.90;;
71127;SDS011;59249;59.736;30.568;2023-05-07T02:11:03;9.32;;;2.30;;
71127;SDS011;59249;59.736;30.568;2023-05-07T02:13:34;5.87;;;1.70;;
71127;SDS011;59249;59.736;30.568;2023-05-07T02:16:05;9.38;;;2.58;;
71127;SDS011;59249;59.736;30.568;2023-05-07T02:18:35;7.43;;;2.42;;
71127;SDS011;59249;59.736;30.568;2023-05-07T02:21:04;6.80;;;2.42;;
71127;SDS011;59249;59.736;30.568;2023-05-07T02:23:34;6.18;;;1.95;;
71127;SDS011;59249;59.736;30.568;2023-05-07T02:26:03;8.47;;;2.20;;
71127;SDS011;59249;59.736;30.568;2023-05-07T02:28:32;5.00;;;1.40;;
71127;SDS011;59249;59.736;30.568;2023-05-07T02:31:04;7.65;;;2.45;;
71127;SDS011;59249;59.736;30.568;2023-05-07T02:33:34;5.95;;;2.40;;
71127;SDS011;59249;59.736;30.568;2023-05-07T02:36:06;8.60;;;2.17;;
71127;SDS011;59249;59.736;30.568;2023-05-07T02:38:44;7.57;;;2.30;;
71127;SDS011;59249;59.736;30.568;2023-05-07T02:41:13;8.75;;;2.60;;
71127;SDS011;59249;59.736;30.568;2023-05-07T02:43:42;7.35;;;2.08;;
71127;SDS011;59249;59.736;30.568;2023-05-07T02:46:11;7.30;;;2.33;;
71127;SDS011;59249;59.736;30.568;2023-05-07T02:48:45;9.35;;;2.83;;
71127;SDS011;59249;59.736;30.568;2023-05-07T02:51:13;10.17;;;3.00;;
71127;SDS011;59249;59.736;30.568;2023-05-07T02:53:43;9.80;;;3.15;;
71127;SDS011;59249;59.736;30.568;2023-05-07T02:56:13;7.57;;;2.70;;
71127;SDS011;59249;59.736;30.568;2023-05-07T02:58:42;8.00;;;2.38;;
71127;SDS011;59249;59.736;30.568;2023-05-07T03:01:12;8.82;;;2.50;;
71127;SDS011;59249;59.736;30.568;2023-05-07T03:03:50;8.33;;;2.73;;
71127;SDS011;59249;59.736;30.568;2023-05-07T03:06:19;7.32;;;3.25;;
71127;SDS011;59249;59.736;30.568;2023-05-07T03:08:49;9.88;;;3.45;;
71127;SDS011;59249;59.736;30.568;2023-05-07T03:11:18;7.57;;;2.15;;
71127;SDS011;59249;59.736;30.568;2023-05-07T03:13:47;5.45;;;2.20;;
71127;SDS011;59249;59.736;30.568;2023-05-07T03:16:18;5.73;;;2.07;;
71127;SDS011;59249;59.736;30.568;2023-05-07T03:18:47;6.53;;;1.90;;
71127;SDS011;59249;59.736;30.568;2023-05-07T03:21:17;6.75;;;1.92;;
71127;SDS011;59249;59.736;30.568;2023-05-07T03:23:45;6.40;;;1.70;;
71127;SDS011;59249;59.736;30.568;2023-05-07T03:26:16;6.38;;;2.58;;
71127;SDS011;59249;59.736;30.568;2023-05-07T03:28:45;5.90;;;2.13;;
71127;SDS011;59249;59.736;30.568;2023-05-07T03:31:16;6.38;;;2.22;;
71127;SDS011;59249;59.736;30.568;2023-05-07T03:33:51;6.65;;;2.10;;
71127;SDS011;59249;59.736;30.568;2023-05-07T03:36:23;6.57;;;1.90;;
71127;SDS011;59249;59.736;30.568;2023-05-07T03:38:54;8.40;;;1.80;;
71127;SDS011;59249;59.736;30.568;2023-05-07T03:41:27;9.70;;;2.03;;
71127;SDS011;59249;59.736;30.568;2023-05-07T03:43:56;2.17;;;0.63;;
71127;SDS011;59249;59.736;30.568;2023-05-07T03:46:25;3.65;;;1.40;;
71127;SDS011;59249;59.736;30.568;2023-05-07T03:48:55;8.40;;;2.58;;
71127;SDS011;59249;59.736;30.568;2023-05-07T03:51:24;5.40;;;2.17;;
71127;SDS011;59249;59.736;30.568;2023-05-07T03:53:53;8.63;;;2.03;;
71127;SDS011;59249;59.736;30.568;2023-05-07T03:56:24;5.20;;;1.70;;
71127;SDS011;59249;59.736;30.568;2023-05-07T03:58:57;7.03;;;2.25;;
71127;SDS011;59249;59.736;30.568;2023-05-07T04:01:26;5.40;;;1.50;;
71127;SDS011;59249;59.736;30.568;2023-05-07T04:04:17;8.45;;;2.55;;
71127;SDS011;59249;59.736;30.568;2023-05-07T04:06:47;7.33;;;2.10;;
71127;SDS011;59249;59.736;30.568;2023-05-07T04:09:16;4.13;;;1.80;;
71127;SDS011;59249;59.736;30.568;2023-05-07T04:11:46;7.28;;;2.10;;
71127;SDS011;59249;59.736;30.568;2023-05-07T04:14:16;7.90;;;2.10;;
71127;SDS011;59249;59.736;30.568;2023-05-07T04:16:45;8.13;;;1.90;;
71127;SDS011;59249;59.736;30.568;2023-05-07T04:19:14;8.50;;;1.77;;
71127;SDS011;59249;59.736;30.568;2023-05-07T04:21:44;6.32;;;1.50;;
71127;SDS011;59249;59.736;30.568;2023-05-07T04:24:13;6.40;;;1.20;;
71127;SDS011;59249;59.736;30.568;2023-05-07T04:26:42;3.45;;;1.02;;
71127;SDS011;59249;59.736;30.568;2023-05-07T04:29:11;5.30;;;1.80;;
71127;SDS011;59249;59.736;30.568;2023-05-07T04:31:42;8.03;;;1.67;;
71127;SDS011;59249;59.736;30.568;2023-05-07T04:34:12;5.30;;;1.52;;
71127;SDS011;59249;59.736;30.568;2023-05-07T04:36:41;7.35;;;1.80;;
71127;SDS011;59249;59.736;30.568;2023-05-07T04:39:12;5.70;;;1.58;;
71127;SDS011;59249;59.736;30.568;2023-05-07T04:41:44;6.38;;;1.50;;
71127;SDS011;59249;59.736;30.568;2023-05-07T04:44:12;5.03;;;1.70;;
71127;SDS011;59249;59.736;30.568;2023-05-07T04:46:43;4.57;;;1.15;;
71127;SDS011;59249;59.736;30.568;2023-05-07T04:49:12;8.18;;;1.27;;
71127;SDS011;59249;59.736;30.568;2023-05-07T04:51:42;4.95;;;1.90;;
71127;SDS011;59249;59.736;30.568;2023-05-07T04:54:12;5.70;;;1.33;;
71127;SDS011;59249;59.736;30.568;2023-05-07T04:56:41;5.40;;;1.13;;
71127;SDS011;59249;59.736;30.568;2023-05-07T04:59:10;4.85;;;1.90;;
71127;SDS011;59249;59.736;30.568;2023-05-07T05:01:39;5.25;;;1.15;;
71127;SDS011;59249;59.736;30.568;2023-05-07T05:04:10;6.47;;;1.80;;
71127;SDS011;59249;59.736;30.568;2023-05-07T05:06:40;5.63;;;2.10;;
71127;SDS011;59249;59.736;30.568;2023-05-07T05:09:10;4.13;;;1.20;;
71127;SDS011;59249;59.736;30.568;2023-05-07T05:11:40;9.10;;;1.95;;
71127;SDS011;59249;59.736;30.568;2023-05-07T05:14:09;5.53;;;1.75;;
71127;SDS011;59249;59.736;30.568;2023-05-07T05:16:38;9.77;;;1.65;;
71127;SDS011;59249;59.736;30.568;2023-05-07T05:19:07;7.03;;;1.50;;
71127;SDS011;59249;59.736;30.568;2023-05-07T05:21:40;5.97;;;1.33;;
71127;SDS011;59249;59.736;30.568;2023-05-07T05:24:09;4.93;;;1.15;;
71127;SDS011;59249;59.736;30.568;2023-05-07T05:26:39;6.03;;;1.73;;
71127;SDS011;59249;59.736;30.568;2023-05-07T05:29:08;7.28;;;2.28;;
71127;SDS011;59249;59.736;30.568;2023-05-07T05:31:39;6.05;;;1.73;;
71127;SDS011;59249;59.736;30.568;2023-05-07T05:34:09;5.30;;;2.03;;
71127;SDS011;59249;59.736;30.568;2023-05-07T05:36:39;3.67;;;1.70;;
71127;SDS011;59249;59.736;30.568;2023-05-07T05:39:08;4.65;;;1.70;;
71127;SDS011;59249;59.736;30.568;2023-05-07T05:41:37;9.90;;;2.20;;
71127;SDS011;59249;59.736;30.568;2023-05-07T05:44:07;4.93;;;1.63;;
71127;SDS011;59249;59.736;30.568;2023-05-07T05:46:36;7.43;;;1.90;;
71127;SDS011;59249;59.736;30.568;2023-05-07T05:49:05;4.80;;;1.35;;
71127;SDS011;59249;59.736;30.568;2023-05-07T05:51:34;5.55;;;1.10;;
71127;SDS011;59249;59.736;30.568;2023-05-07T05:54:05;6.57;;;1.75;;
71127;SDS011;59249;59.736;30.568;2023-05-07T05:56:34;4.05;;;0.60;;
71127;SDS011;59249;59.736;30.568;2023-05-07T05:59:03;5.40;;;0.87;;
71127;SDS011;59249;59.736;30.568;2023-05-07T06:01:32;4.95;;;1.35;;
71127;SDS011;59249;59.736;30.568;2023-05-07T06:04:03;2.63;;;0.75;;
71127;SDS011;59249;59.736;30.568;2023-05-07T06:06:33;3.28;;;0.65;;
71127;SDS011;59249;59.736;30.568;2023-05-07T06:09:02;4.30;;;1.20;;
71127;SDS011;59249;59.736;30.568;2023-05-07T06:11:43;3.47;;;0.77;;
71127;SDS011;59249;59.736;30.568;2023-05-07T06:14:13;5.60;;;1.00;;
71127;SDS011;59249;59.736;30.568;2023-05-07T06:16:42;4.35;;;0.70;;
71127;SDS011;59249;59.736;30.568;2023-05-07T06:19:11;7.00;;;0.50;;
71127;SDS011;59249;59.736;30.568;2023-05-07T06:21:41;3.90;;;1.30;;
71127;SDS011;59249;59.736;30.568;2023-05-07T06:24:11;3.90;;;0.60;;
71127;SDS011;59249;59.736;30.568;2023-05-07T06:26:40;3.10;;;0.40;;
71127;SDS011;59249;59.736;30.568;2023-05-07T06:29:09;3.28;;;0.70;;
71127;SDS011;59249;59.736;30.568;2023-05-07T06:31:39;3.05;;;0.50;;
71127;SDS011;59249;59.736;30.568;2023-05-07T06:34:10;3.53;;;0.70;;
71127;SDS011;59249;59.736;30.568;2023-05-07T06:36:41;3.70;;;0.90;;
71127;SDS011;59249;59.736;30.568;2023-05-07T06:39:24;3.45;;;0.75;;
71127;SDS011;59249;59.736;30.568;2023-05-07T06:41:53;1.55;;;0.32;;
71127;SDS011;59249;59.736;30.568;2023-05-07T06:44:26;4.30;;;0.68;;
71127;SDS011;59249;59.736;30.568;2023-05-07T06:47:08;2.45;;;0.30;;
71127;SDS011;59249;59.736;30.568;2023-05-07T06:49:41;2.57;;;0.67;;
71127;SDS011;59249;59.736;30.568;2023-05-07T06:52:12;2.38;;;0.57;;
71127;SDS011;59249;59.736;30.568;2023-05-07T06:54:43;2.25;;;0.50;;
71127;SDS011;59249;59.736;30.568;2023-05-07T06:57:14;3.85;;;1.00;;
71127;SDS011;59249;59.736;30.568;2023-05-07T06:59:43;3.55;;;1.00;;
71127;SDS011;59249;59.736;30.568;2023-05-07T07:02:12;2.67;;;0.93;;
71127;SDS011;59249;59.736;30.568;2023-05-07T07:04:44;2.75;;;0.60;;
71127;SDS011;59249;59.736;30.568;2023-05-07T07:07:13;3.83;;;0.68;;
71127;SDS011;59249;59.736;30.568;2023-05-07T07:09:46;1.58;;;0.40;;
71127;SDS011;59249;59.736;30.568;2023-05-07T07:12:17;2.28;;;0.50;;
71127;SDS011;59249;59.736;30.568;2023-05-07T07:14:46;2.77;;;0.50;;
71127;SDS011;59249;59.736;30.568;2023-05-07T07:17:16;2.00;;;0.57;;
71127;SDS011;59249;59.736;30.568;2023-05-07T07:19:44;2.70;;;0.68;;
71127;SDS011;59249;59.736;30.568;2023-05-07T07:22:13;2.67;;;0.50;;
71127;SDS011;59249;59.736;30.568;2023-05-07T07:24:42;2.72;;;0.52;;
71127;SDS011;59249;59.736;30.568;2023-05-07T07:27:15;4.23;;;0.87;;
71127;SDS011;59249;59.736;30.568;2023-05-07T07:29:48;4.43;;;0.60;;
71127;SDS011;59249;59.736;30.568;2023-05-07T07:32:18;2.97;;;0.90;;
71127;SDS011;59249;59.736;30.568;2023-05-07T07:34:47;2.03;;;0.43;;
71127;SDS011;59249;59.736;30.568;2023-05-07T07:37:17;2.47;;;0.70;;
71127;SDS011;59249;59.736;30.568;2023-05-07T07:39:46;2.70;;;0.60;;
71127;SDS011;59249;59.736;30.568;2023-05-07T07:42:16;1.35;;;0.40;;
71127;SDS011;59249;59.736;30.568;2023-05-07T07:44:45;2.63;;;0.50;;
71127;SDS011;59249;59.736;30.568;2023-05-07T07:47:16;4.28;;;0.70;;
71127;SDS011;59249;59.736;30.568;2023-05-07T07:49:46;2.22;;;0.35;;
71127;SDS011;59249;59.736;30.568;2023-05-07T07:52:16;1.53;;;0.30;;
71127;SDS011;59249;59.736;30.568;2023-05-07T07:54:49;1.65;;;0.20;;
71127;SDS011;59249;59.736;30.568;2023-05-07T07:57:22;1.13;;;0.20;;
71127;SDS011;59249;59.736;30.568;2023-05-07T07:59:51;3.65;;;0.40;;
71127;SDS011;59249;59.736;30.568;2023-05-07T08:02:20;1.05;;;0.30;;
71127;SDS011;59249;59.736;30.568;2023-05-07T08:04:50;1.90;;;0.20;;
71127;SDS011;59249;59.736;30.568;2023-05-07T08:07:19;6.80;;;0.30;;
71127;SDS011;59249;59.736;30.568;2023-05-07T08:09:49;0.68;;;0.20;;
71127;SDS011;59249;59.736;30.568;2023-05-07T08:12:23;3.05;;;0.30;;
71127;SDS011;59249;59.736;30.568;2023-05-07T08:14:52;3.70;;;0.50;;
71127;SDS011;59249;59.736;30.568;2023-05-07T08:17:22;0.70;;;0.10;;
71127;SDS011;59249;59.736;30.568;2023-05-07T08:19:52;1.48;;;0.22;;
71127;SDS011;59249;59.736;30.568;2023-05-07T08:22:22;1.77;;;0.20;;
71127;SDS011;59249;59.736;30.568;2023-05-07T08:24:51;1.92;;;0.20;;
71127;SDS011;59249;59.736;30.568;2023-05-07T08:27:20;0.90;;;0.20;;
71127;SDS011;59249;59.736;30.568;2023-05-07T08:29:50;1.67;;;0.40;;
71127;SDS011;59249;59.736;30.568;2023-05-07T08:32:21;5.50;;;0.85;;
71127;SDS011;59249;59.736;30.568;2023-05-07T08:34:50;1.90;;;0.30;;
71127;SDS011;59249;59.736;30.568;2023-05-07T08:37:19;2.33;;;0.40;;
71127;SDS011;59249;59.736;30.568;2023-05-07T08:39:49;0.63;;;0.20;;
71127;SDS011;59249;59.736;30.568;2023-05-07T08:42:22;0.83;;;0.20;;
71127;SDS011;59249;59.736;30.568;2023-05-07T08:44:52;0.82;;;0.20;;
71127;SDS011;59249;59.736;30.568;2023-05-07T08:47:32;1.15;;;0.20;;
71127;SDS011;59249;59.736;30.568;2023-05-07T08:50:18;1.23;;;0.30;;
71127;SDS011;59249;59.736;30.568;2023-05-07T08:52:51;2.38;;;0.28;;
71127;SDS011;59249;59.736;30.568;2023-05-07T08:55:23;2.07;;;0.17;;
71127;SDS011;59249;59.736;30.568;2023-05-07T08:57:55;1.75;;;0.15;;
71127;SDS011;59249;59.736;30.568;2023-05-07T09:00:25;1.15;;;0.13;;
71127;SDS011;59249;59.736;30.568;2023-05-07T09:02:58;1.48;;;0.22;;
71127;SDS011;59249;59.736;30.568;2023-05-07T09:05:35;4.53;;;0.57;;
71127;SDS011;59249;59.736;30.568;2023-05-07T09:08:07;1.13;;;0.20;;
71127;SDS011;59249;59.736;30.568;2023-05-07T09:10:37;0.93;;;0.25;;
71127;SDS011;59249;59.736;30.568;2023-05-07T09:13:08;1.30;;;0.20;;
71127;SDS011;59249;59.736;30.568;2023-05-07T09:15:50;2.15;;;0.30;;
71127;SDS011;59249;59.736;30.568;2023-05-07T09:18:19;6.88;;;0.30;;
71127;SDS011;59249;59.736;30.568;2023-05-07T09:20:48;0.97;;;0.20;;
71127;SDS011;59249;59.736;30.568;2023-05-07T09:23:19;1.13;;;0.20;;
71127;SDS011;59249;59.736;30.568;2023-05-07T09:25:49;2.03;;;0.20;;
71127;SDS011;59249;59.736;30.568;2023-05-07T09:28:26;3.15;;;0.20;;
71127;SDS011;59249;59.736;30.568;2023-05-07T09:30:55;1.48;;;0.32;;
71127;SDS011;59249;59.736;30.568;2023-05-07T09:33:26;2.37;;;0.30;;
71127;SDS011;59249;59.736;30.568;2023-05-07T09:36:01;0.75;;;0.30;;
71127;SDS011;59249;59.736;30.568;2023-05-07T09:38:32;1.25;;;0.38;;
71127;SDS011;59249;59.736;30.568;2023-05-07T09:41:03;1.88;;;0.28;;
71127;SDS011;59249;59.736;30.568;2023-05-07T09:43:43;2.00;;;0.17;;
71127;SDS011;59249;59.736;30.568;2023-05-07T09:46:14;0.97;;;0.30;;
71127;SDS011;59249;59.736;30.568;2023-05-07T09:48:49;2.55;;;0.40;;
71127;SDS011;59249;59.736;30.568;2023-05-07T09:51:25;1.23;;;0.20;;
71127;SDS011;59249;59.736;30.568;2023-05-07T09:53:59;2.30;;;0.40;;
71127;SDS011;59249;59.736;30.568;2023-05-07T09:56:34;3.13;;;0.32;;
71127;SDS011;59249;59.736;30.568;2023-05-07T09:59:06;2.20;;;0.20;;
71127;SDS011;59249;59.736;30.568;2023-05-07T10:01:38;0.98;;;0.20;;
71127;SDS011;59249;59.736;30.568;2023-05-07T10:04:10;3.22;;;0.20;;
71127;SDS011;59249;59.736;30.568;2023-05-07T10:06:41;2.17;;;0.22;;
71127;SDS011;59249;59.736;30.568;2023-05-07T10:09:12;1.05;;;0.35;;
71127;SDS011;59249;59.736;30.568;2023-05-07T10:11:43;1.17;;;0.20;;
71127;SDS011;59249;59.736;30.568;2023-05-07T10:14:15;0.77;;;0.10;;
71127;SDS011;59249;59.736;30.568;2023-05-07T10:16:44;1.35;;;0.30;;
71127;SDS011;59249;59.736;30.568;2023-05-07T10:19:15;0.47;;;0.13;;
71127;SDS011;59249;59.736;30.568;2023-05-07T10:21:53;2.72;;;0.30;;
71127;SDS011;59249;59.736;30.568;2023-05-07T10:24:31;1.67;;;0.20;;
71127;SDS011;59249;59.736;30.568;2023-05-07T10:27:05;1.58;;;0.22;;
71127;SDS011;59249;59.736;30.568;2023-05-07T10:29:48;1.73;;;0.30;;
71127;SDS011;59249;59.736;30.568;2023-05-07T10:32:33;1.38;;;0.25;;
71127;SDS011;59249;59.736;30.568;2023-05-07T10:35:14;1.35;;;0.28;;
71127;SDS011;59249;59.736;30.568;2023-05-07T10:37:48;1.93;;;0.30;;
71127;SDS011;59249;59.736;30.568;2023-05-07T10:40:20;1.88;;;0.25;;
71127;SDS011;59249;59.736;30.568;2023-05-07T10:42:55;2.55;;;0.63;;
71127;SDS011;59249;59.736;30.568;2023-05-07T10:45:30;0.60;;;0.15;;
71127;SDS011;59249;59.736;30.568;2023-05-07T10:48:08;1.58;;;0.40;;
71127;SDS011;59249;59.736;30.568;2023-05-07T10:54:20;1.40;;;0.30;;
71127;SDS011;59249;59.736;30.568;2023-05-07T11:03:22;1.23;;;0.32;;
71127;SDS011;59249;59.736;30.568;2023-05-07T11:06:09;2.20;;;0.20;;
71127;SDS011;59249;59.736;30.568;2023-05-07T11:08:53;1.67;;;0.57;;
71127;SDS011;59249;59.736;30.568;2023-05-07T11:11:44;2.05;;;0.40;;
71127;SDS011;59249;59.736;30.568;2023-05-07T11:14:45;2.28;;;0.50;;
71127;SDS011;59249;59.736;30.568;2023-05-07T11:17:20;1.70;;;0.43;;
71127;SDS011;59249;59.736;30.568;2023-05-07T11:19:56;1.93;;;0.37;;
71127;SDS011;59249;59.736;30.568;2023-05-07T11:22:48;1.50;;;0.30;;
71127;SDS011;59249;59.736;30.568;2023-05-07T11:25:17;1.58;;;0.20;;
71127;SDS011;59249;59.736;30.568;2023-05-07T11:27:52;1.55;;;0.40;;
71127;SDS011;59249;59.736;30.568;2023-05-07T11:30:22;3.38;;;0.40;;
71127;SDS011;59249;59.736;30.568;2023-05-07T11:32:53;0.63;;;0.40;;
71127;SDS011;59249;59.736;30.568;2023-05-07T11:35:22;1.55;;;0.20;;
71127;SDS011;59249;59.736;30.568;2023-05-07T11:37:57;6.95;;;0.40;;
71127;SDS011;59249;59.736;30.568;2023-05-07T11:40:31;3.05;;;0.35;;
71127;SDS011;59249;59.736;30.568;2023-05-07T11:43:01;1.20;;;0.40;;
71127;SDS011;59249;59.736;30.568;2023-05-07T11:45:38;3.97;;;0.50;;
71127;SDS011;59249;59.736;30.568;2023-05-07T11:48:08;2.53;;;0.40;;
71127;SDS011;59249;59.736;30.568;2023-05-07T11:50:39;3.47;;;0.38;;
71127;SDS011;59249;59.736;30.568;2023-05-07T11:53:19;2.05;;;0.32;;
71127;SDS011;59249;59.736;30.568;2023-05-07T11:55:52;1.25;;;0.22;;
71127;SDS011;59249;59.736;30.568;2023-05-07T11:58:21;1.27;;;0.40;;
71127;SDS011;59249;59.736;30.568;2023-05-07T12:00:53;1.85;;;0.30;;
71127;SDS011;59249;59.736;30.568;2023-05-07T12:03:23;2.75;;;0.50;;
71127;SDS011;59249;59.736;30.568;2023-05-07T12:05:55;1.55;;;0.30;;
71127;SDS011;59249;59.736;30.568;2023-05-07T12:08:24;2.95;;;1.10;;
71127;SDS011;59249;59.736;30.568;2023-05-07T12:10:53;1.63;;;0.30;;
71127;SDS011;59249;59.736;30.568;2023-05-07T12:13:23;1.70;;;0.50;;
71127;SDS011;59249;59.736;30.568;2023-05-07T12:15:54;1.33;;;0.20;;
71127;SDS011;59249;59.736;30.568;2023-05-07T12:18:25;1.35;;;0.47;;
71127;SDS011;59249;59.736;30.568;2023-05-07T12:20:55;1.08;;;0.30;;
71127;SDS011;59249;59.736;30.568;2023-05-07T12:23:24;1.50;;;0.47;;
71127;SDS011;59249;59.736;30.568;2023-05-07T12:25:54;1.20;;;0.30;;
71127;SDS011;59249;59.736;30.568;2023-05-07T12:28:23;1.42;;;0.20;;
71127;SDS011;59249;59.736;30.568;2023-05-07T12:30:52;1.63;;;0.40;;
71127;SDS011;59249;59.736;30.568;2023-05-07T12:33:23;2.28;;;0.38;;
71127;SDS011;59249;59.736;30.568;2023-05-07T12:35:57;2.87;;;0.30;;
71127;SDS011;59249;59.736;30.568;2023-05-07T12:38:34;0.98;;;0.20;;
71127;SDS011;59249;59.736;30.568;2023-05-07T12:41:06;3.10;;;0.60;;
71127;SDS011;59249;59.736;30.568;2023-05-07T12:43:37;1.90;;;0.50;;
71127;SDS011;59249;59.736;30.568;2023-05-07T12:46:06;2.10;;;0.50;;
71127;SDS011;59249;59.736;30.568;2023-05-07T12:48:37;2.53;;;0.40;;
71127;SDS011;59249;59.736;30.568;2023-05-07T12:51:12;1.95;;;0.50;;
71127;SDS011;59249;59.736;30.568;2023-05-07T12:53:42;2.90;;;0.60;;
71127;SDS011;59249;59.736;30.568;2023-05-07T12:56:11;2.92;;;0.50;;
71127;SDS011;59249;59.736;30.568;2023-05-07T12:58:43;1.48;;;0.35;;
71127;SDS011;59249;59.736;30.568;2023-05-07T13:01:12;3.13;;;0.50;;
71127;SDS011;59249;59.736;30.568;2023-05-07T13:03:47;2.50;;;0.50;;
71127;SDS011;59249;59.736;30.568;2023-05-07T13:06:18;1.85;;;0.50;;
71127;SDS011;59249;59.736;30.568;2023-05-07T13:08:46;1.40;;;0.20;;
71127;SDS011;59249;59.736;30.568;2023-05-07T13:11:15;2.00;;;0.45;;
71127;SDS011;59249;59.736;30.568;2023-05-07T13:13:44;2.93;;;0.60;;
71127;SDS011;59249;59.736;30.568;2023-05-07T13:16:13;3.75;;;0.50;;
71127;SDS011;59249;59.736;30.568;2023-05-07T13:18:43;6.28;;;0.45;;
71127;SDS011;59249;59.736;30.568;2023-05-07T13:21:12;2.35;;;0.52;;
71127;SDS011;59249;59.736;30.568;2023-05-07T13:23:41;2.47;;;0.40;;
71127;SDS011;59249;59.736;30.568;2023-05-07T13:26:10;3.27;;;0.50;;
71127;SDS011;59249;59.736;30.568;2023-05-07T13:28:52;1.77;;;0.50;;
71127;SDS011;59249;59.736;30.568;2023-05-07T13:31:21;1.33;;;0.30;;
71127;SDS011;59249;59.736;30.568;2023-05-07T13:33:52;2.40;;;0.50;;
71127;SDS011;59249;59.736;30.568;2023-05-07T13:36:22;2.30;;;0.52;;
71127;SDS011;59249;59.736;30.568;2023-05-07T13:38:52;1.37;;;0.30;;
71127;SDS011;59249;59.736;30.568;2023-05-07T13:41:20;4.40;;;0.50;;
71127;SDS011;59249;59.736;30.568;2023-05-07T13:43:49;2.45;;;0.52;;
71127;SDS011;59249;59.736;30.568;2023-05-07T13:46:23;2.53;;;0.32;;
71127;SDS011;59249;59.736;30.568;2023-05-07T13:49:03;3.05;;;0.75;;
71127;SDS011;59249;59.736;30.568;2023-05-07T13:51:32;2.90;;;0.60;;
71127;SDS011;59249;59.736;30.568;2023-05-07T13:54:02;3.88;;;0.40;;
71127;SDS011;59249;59.736;30.568;2023-05-07T13:56:31;2.75;;;0.40;;
71127;SDS011;59249;59.736;30.568;2023-05-07T13:59:00;1.92;;;0.43;;
71127;SDS011;59249;59.736;30.568;2023-05-07T14:01:30;2.88;;;0.63;;
71127;SDS011;59249;59.736;30.568;2023-05-07T14:04:03;8.23;;;0.67;;
71127;SDS011;59249;59.736;30.568;2023-05-07T14:06:40;6.30;;;1.60;;
71127;SDS011;59249;59.736;30.568;2023-05-07T14:09:33;3.80;;;1.00;;
71127;SDS011;59249;59.736;30.568;2023-05-07T14:12:31;2.75;;;0.80;;
71127;SDS011;59249;59.736;30.568;2023-05-07T14:15:01;5.15;;;0.60;;
71127;SDS011;59249;59.736;30.568;2023-05-07T14:17:37;4.60;;;0.60;;
71127;SDS011;59249;59.736;30.568;2023-05-07T14:20:24;2.28;;;0.65;;
71127;SDS011;59249;59.736;30.568;2023-05-07T14:22:54;6.10;;;1.05;;
71127;SDS011;59249;59.736;30.568;2023-05-07T14:25:25;3.30;;;1.00;;
71127;SDS011;59249;59.736;30.568;2023-05-07T14:27:54;1.45;;;0.50;;
71127;SDS011;59249;59.736;30.568;2023-05-07T14:30:23;2.07;;;0.40;;
71127;SDS011;59249;59.736;30.568;2023-05-07T14:32:52;2.35;;;0.70;;
71127;SDS011;59249;59.736;30.568;2023-05-07T14:35:21;2.28;;;0.50;;
71127;SDS011;59249;59.736;30.568;2023-05-07T14:37:58;2.28;;;0.70;;
71127;SDS011;59249;59.736;30.568;2023-05-07T14:40:38;3.75;;;0.57;;
71127;SDS011;59249;59.736;30.568;2023-05-07T14:43:08;1.90;;;0.40;;
71127;SDS011;59249;59.736;30.568;2023-05-07T14:45:37;2.05;;;0.40;;
71127;SDS011;59249;59.736;30.568;2023-05-07T14:48:08;2.50;;;0.60;;
71127;SDS011;59249;59.736;30.568;2023-05-07T14:50:41;3.33;;;0.68;;
71127;SDS011;59249;59.736;30.568;2023-05-07T14:53:17;4.47;;;1.00;;
71127;SDS011;59249;59.736;30.568;2023-05-07T14:55:52;2.87;;;1.07;;
71127;SDS011;59249;59.736;30.568;2023-05-07T14:58:22;1.90;;;0.55;;
71127;SDS011;59249;59.736;30.568;2023-05-07T15:00:51;2.38;;;0.68;;
71127;SDS011;59249;59.736;30.568;2023-05-07T15:03:24;3.72;;;0.50;;
71127;SDS011;59249;59.736;30.568;2023-05-07T15:05:53;2.38;;;0.80;;
71127;SDS011;59249;59.736;30.568;2023-05-07T15:08:33;2.90;;;1.00;;